createdAt,value
2018-05-23T00:01:31.653Z,84.87
2018-05-23T00:04:00.111Z,84.94
2018-05-23T00:06:28.519Z,84.66
2018-05-23T00:08:57.723Z,84.98
2018-05-23T00:11:26.902Z,85.23
2018-05-23T00:13:55.346Z,85.37
2018-05-23T00:16:23.765Z,85.80
2018-05-23T00:18:52.236Z,86.11
2018-05-23T00:21:20.661Z,86.03
2018-05-23T00:23:49.887Z,85.56
2018-05-23T00:26:18.296Z,85.40
2018-05-23T00:28:46.768Z,85.07
2018-05-23T00:31:15.186Z,85.01
2018-05-23T00:33:43.614Z,85.02
2018-05-23T00:36:12.069Z,85.99
2018-05-23T00:38:40.502Z,86.03
2018-05-23T00:41:08.941Z,85.76
2018-05-23T00:43:38.132Z,85.55
2018-05-23T00:46:06.594Z,85.55
2018-05-23T00:48:35.037Z,85.23
2018-05-23T00:51:03.489Z,85.07
2018-05-23T00:53:31.900Z,84.91
2018-05-23T00:56:00.353Z,84.80
2018-05-23T00:58:28.767Z,83.99
2018-05-23T01:00:57.971Z,84.05
2018-05-23T01:03:26.388Z,84.11
2018-05-23T01:05:54.831Z,84.41
2018-05-23T01:08:24.014Z,84.33
2018-05-23T01:10:52.466Z,84.42
2018-05-23T01:13:20.880Z,84.83
2018-05-23T01:15:49.339Z,84.89
2018-05-23T01:18:17.751Z,85.19
2018-05-23T01:20:46.194Z,85.51
2018-05-23T01:23:14.605Z,85.89
2018-05-23T01:25:43.046Z,85.87
2018-05-23T01:28:11.468Z,86.13
2018-05-23T01:30:39.923Z,85.82
2018-05-23T01:33:08.329Z,85.39
2018-05-23T01:35:36.780Z,85.24
2018-05-23T01:38:05.215Z,85.33
2018-05-23T01:40:33.677Z,85.23
2018-05-23T01:43:02.100Z,85.53
2018-05-23T01:45:31.329Z,85.53
2018-05-23T01:47:59.730Z,85.43
2018-05-23T01:50:28.174Z,85.37
2018-05-23T01:52:57.408Z,85.00
2018-05-23T01:55:26.591Z,85.10
2018-05-23T01:57:55.021Z,85.19
2018-05-23T02:00:23.464Z,85.43
2018-05-23T02:02:51.887Z,85.60
2018-05-23T02:05:20.327Z,86.03
2018-05-23T02:07:49.596Z,86.20
2018-05-23T02:10:18.052Z,86.72
2018-05-23T02:12:46.460Z,87.05
2018-05-23T02:15:14.904Z,87.05
2018-05-23T02:17:43.307Z,87.03
2018-05-23T02:20:11.770Z,86.30
2018-05-23T02:22:40.194Z,85.42
2018-05-23T02:25:08.635Z,85.83
2018-05-23T02:27:37.042Z,86.31
2018-05-23T02:30:05.516Z,86.60
2018-05-23T02:32:33.943Z,87.04
2018-05-23T02:35:02.363Z,87.36
2018-05-23T02:37:30.848Z,87.53
2018-05-23T02:39:59.272Z,87.57
2018-05-23T02:42:27.727Z,87.53
2018-05-23T02:44:56.141Z,87.65
2018-05-23T02:47:24.633Z,87.04
2018-05-23T02:49:53.074Z,87.36
2018-05-23T02:52:21.547Z,87.30
2018-05-23T02:54:50.740Z,87.56
2018-05-23T02:57:19.953Z,87.55
2018-05-23T02:59:49.139Z,87.38
2018-05-23T03:02:17.620Z,87.46
2018-05-23T03:04:46.046Z,87.11
2018-05-23T03:07:14.479Z,86.83
2018-05-23T03:09:42.905Z,86.65
2018-05-23T03:12:11.356Z,86.96
2018-05-23T03:14:39.759Z,86.69
2018-05-23T03:17:08.961Z,86.89
2018-05-23T03:19:38.134Z,86.55
2018-05-23T03:22:06.657Z,86.40
2018-05-23T03:24:35.020Z,86.21
2018-05-23T03:27:03.475Z,86.32
2018-05-23T03:29:31.879Z,86.24
2018-05-23T03:32:00.328Z,86.13
2018-05-23T03:34:28.754Z,85.57
2018-05-23T03:36:57.972Z,85.54
2018-05-23T03:39:27.160Z,86.29
2018-05-23T03:41:55.627Z,86.48
2018-05-23T03:44:24.076Z,86.50
2018-05-23T03:46:52.527Z,86.70
2018-05-23T03:49:21.708Z,86.84
2018-05-23T03:51:50.149Z,86.71
2018-05-23T03:54:18.573Z,86.75
2018-05-23T03:56:47.039Z,86.47
2018-05-23T03:59:15.450Z,86.86
2018-05-23T04:02:01.501Z,86.89
2018-05-23T04:04:47.871Z,87.24
2018-05-23T04:07:44.625Z,87.33
2018-05-23T04:10:13.112Z,87.25
2018-05-23T04:12:41.565Z,87.17
2018-05-23T04:15:09.991Z,87.51
2018-05-23T04:17:38.434Z,87.16
2018-05-23T04:20:06.856Z,87.03
2018-05-23T04:22:35.300Z,86.92
2018-05-23T04:25:03.748Z,86.54
2018-05-23T04:27:32.256Z,86.87
2018-05-23T04:30:00.663Z,87.20
2018-05-23T04:32:29.123Z,87.06
2018-05-23T04:34:58.282Z,86.54
2018-05-23T04:37:26.678Z,86.56
2018-05-23T04:39:55.128Z,86.87
2018-05-23T04:42:23.603Z,86.35
2018-05-23T04:44:52.039Z,86.20
2018-05-23T04:47:20.470Z,86.02
2018-05-23T04:49:48.905Z,85.74
2018-05-23T04:52:17.304Z,85.99
2018-05-23T04:54:45.726Z,85.91
2018-05-23T04:57:14.186Z,85.94
2018-05-23T04:59:42.578Z,85.71
2018-05-23T05:02:10.979Z,85.54
2018-05-23T05:04:39.424Z,85.29
2018-05-23T05:07:07.831Z,85.11
2018-05-23T05:09:36.264Z,85.61
2018-05-23T05:12:04.665Z,85.90
2018-05-23T05:14:33.102Z,85.35
2018-05-23T05:17:01.495Z,85.46
2018-05-23T05:19:29.923Z,85.00
2018-05-23T05:21:58.330Z,84.93
2018-05-23T05:24:27.520Z,84.99
2018-05-23T05:26:56.695Z,85.10
2018-05-23T05:29:25.128Z,84.56
2018-05-23T05:31:53.622Z,85.00
2018-05-23T05:34:22.008Z,83.70
2018-05-23T05:36:50.402Z,83.91
2018-05-23T05:39:18.839Z,84.28
2018-05-23T05:41:48.011Z,85.86
2018-05-23T05:44:16.457Z,86.92
2018-05-23T05:46:44.873Z,85.82
2018-05-23T05:49:13.308Z,86.56
2018-05-23T05:51:42.484Z,87.79
2018-05-23T05:54:10.917Z,87.15
2018-05-23T05:56:39.347Z,86.37
2018-05-23T05:59:07.780Z,84.85
2018-05-23T06:01:36.183Z,85.45
2018-05-23T06:04:04.639Z,86.17
2018-05-23T06:06:33.054Z,86.30
2018-05-23T06:09:01.490Z,86.60
2018-05-23T06:11:30.672Z,86.44
2018-05-23T06:13:59.092Z,86.35
2018-05-23T06:16:27.491Z,86.01
2018-05-23T06:18:56.319Z,85.19
2018-05-23T06:21:24.728Z,84.48
2018-05-23T06:23:54.599Z,83.90
2018-05-23T06:26:22.973Z,84.01
2018-05-23T06:28:51.403Z,83.71
2018-05-23T06:31:19.806Z,83.79
2018-05-23T06:33:49.012Z,84.32
2018-05-23T06:36:18.190Z,83.78
2018-05-23T06:38:46.622Z,84.42
2018-05-23T06:41:15.018Z,84.62
2018-05-23T06:43:43.614Z,85.17
2018-05-23T06:46:11.981Z,85.43
2018-05-23T06:48:40.314Z,85.97
2018-05-23T06:51:09.521Z,85.76
2018-05-23T06:53:37.914Z,85.42
2018-05-23T06:56:07.092Z,85.17
2018-05-23T06:58:35.498Z,83.90
2018-05-23T07:01:04.698Z,83.45
2018-05-23T07:03:33.860Z,83.47
2018-05-23T07:06:02.306Z,84.71
2018-05-23T07:08:30.700Z,84.00
2018-05-23T07:10:59.140Z,84.21
2018-05-23T07:13:27.525Z,84.71
2018-05-23T07:15:55.946Z,85.47
2018-05-23T07:18:24.352Z,86.54
2018-05-23T07:20:52.791Z,85.93
2018-05-23T07:23:21.966Z,85.51
2018-05-23T07:25:51.244Z,85.20
2018-05-23T07:28:19.640Z,85.04
2018-05-23T07:30:48.088Z,84.62
2018-05-23T07:33:16.520Z,84.62
2018-05-23T07:35:45.756Z,85.13
2018-05-23T07:38:14.207Z,85.05
2018-05-23T07:40:42.653Z,85.14
2018-05-23T07:43:11.071Z,83.59
2018-05-23T07:45:39.520Z,83.36
2018-05-23T07:48:07.940Z,82.92
2018-05-23T07:50:36.396Z,82.90
2018-05-23T07:53:04.807Z,84.03
2018-05-23T07:55:33.263Z,84.42
2018-05-23T07:58:01.679Z,84.48
2018-05-23T08:00:30.150Z,84.01
2018-05-23T08:02:59.461Z,83.37
2018-05-23T08:05:27.888Z,82.29
2018-05-23T08:07:57.094Z,83.89
2018-05-23T08:10:25.559Z,82.80
2018-05-23T08:12:54.749Z,83.83
2018-05-23T08:15:23.192Z,83.73
2018-05-23T08:17:51.600Z,82.83
2018-05-23T08:20:20.053Z,82.09
2018-05-23T08:22:48.454Z,81.25
2018-05-23T08:25:16.886Z,83.05
2018-05-23T08:27:46.057Z,82.01
2018-05-23T08:30:14.497Z,84.28
2018-05-23T08:32:42.906Z,84.86
2018-05-23T08:35:11.300Z,85.25
2018-05-23T08:37:39.726Z,84.30
2018-05-23T08:40:08.903Z,85.29
2018-05-23T08:42:37.338Z,84.71
2018-05-23T08:45:05.753Z,83.82
2018-05-23T08:47:34.256Z,83.77
2018-05-23T08:50:02.663Z,83.17
2018-05-23T08:52:31.866Z,83.14
2018-05-23T08:55:01.064Z,81.72
2018-05-23T08:57:30.318Z,82.05
2018-05-23T08:59:58.722Z,83.04
2018-05-23T09:02:27.207Z,83.27
2018-05-23T09:04:55.643Z,83.42
2018-05-23T09:07:24.162Z,81.97
2018-05-23T09:09:52.567Z,82.94
2018-05-23T09:12:21.026Z,83.13
2018-05-23T09:14:49.411Z,81.47
2018-05-23T09:17:17.881Z,83.18
2018-05-23T09:19:46.279Z,84.61
2018-05-23T09:22:14.735Z,82.87
2018-05-23T09:24:43.139Z,84.05
2018-05-23T09:27:11.576Z,83.85
2018-05-23T09:29:40.744Z,84.18
2018-05-23T09:32:09.252Z,81.44
2018-05-23T09:34:37.590Z,82.02
2018-05-23T09:37:06.023Z,81.62
2018-05-23T09:39:34.435Z,80.58
2018-05-23T09:42:02.873Z,82.00
2018-05-23T09:44:32.084Z,82.74
2018-05-23T09:47:00.511Z,82.23
2018-05-23T09:49:28.919Z,82.85
2018-05-23T09:51:57.349Z,82.70
2018-05-23T09:54:25.739Z,83.59
2018-05-23T09:56:54.183Z,83.53
2018-05-23T09:59:22.608Z,80.43
2018-05-23T10:01:51.799Z,80.52
2018-05-23T10:04:20.214Z,79.61
2018-05-23T10:06:48.629Z,80.35
2018-05-23T10:09:17.044Z,79.24
2018-05-23T10:11:45.480Z,77.35
2018-05-23T10:14:13.881Z,79.90
2018-05-23T10:16:43.077Z,80.76
2018-05-23T10:19:11.484Z,78.98
2018-05-23T10:21:39.927Z,81.29
2018-05-23T10:24:08.323Z,79.86
2018-05-23T10:26:36.758Z,78.47
2018-05-23T10:29:05.161Z,78.01
2018-05-23T10:31:34.347Z,80.06
2018-05-23T10:34:03.549Z,79.28
2018-05-23T10:36:31.948Z,79.06
2018-05-23T10:39:01.184Z,79.90
2018-05-23T10:41:29.556Z,81.90
2018-05-23T10:43:57.984Z,82.72
2018-05-23T10:46:26.388Z,78.76
2018-05-23T10:48:54.823Z,76.79
2018-05-23T10:51:23.235Z,75.87
2018-05-23T10:53:51.671Z,76.50
2018-05-23T10:56:20.066Z,76.09
2018-05-23T10:58:48.498Z,77.35
2018-05-23T11:01:16.895Z,77.77
2018-05-23T11:03:46.093Z,77.67
2018-05-23T11:06:15.288Z,78.48
2018-05-23T11:08:44.497Z,77.76
2018-05-23T11:11:13.664Z,76.97
2018-05-23T11:13:42.107Z,78.01
2018-05-23T11:16:10.515Z,75.72
2018-05-23T11:18:39.718Z,72.94
2018-05-23T11:21:08.116Z,78.55
2018-05-23T11:23:36.560Z,71.70
2018-05-23T11:26:04.959Z,64.81
2018-05-23T11:28:33.404Z,61.74
2018-05-23T11:31:02.576Z,68.58
2018-05-23T11:33:31.015Z,66.61
2018-05-23T11:35:59.411Z,63.46
2018-05-23T11:38:28.653Z,69.15
2018-05-23T11:40:57.073Z,67.67
2018-05-23T11:43:26.286Z,65.46
2018-05-23T11:45:54.704Z,64.99
2018-05-23T11:48:23.150Z,63.11
2018-05-23T11:50:51.571Z,66.26
2018-05-23T11:53:20.004Z,65.04
2018-05-23T11:55:49.176Z,66.60
2018-05-23T11:58:17.618Z,64.92
2018-05-23T12:00:46.060Z,62.27
2018-05-23T12:03:14.589Z,60.06
2018-05-23T12:05:43.013Z,70.64
2018-05-23T12:08:11.485Z,67.79
2018-05-23T12:10:40.085Z,70.58
2018-05-23T12:13:08.401Z,61.51
2018-05-23T12:15:37.599Z,63.27
2018-05-23T12:18:06.830Z,57.51
2018-05-23T12:20:35.271Z,61.76
2018-05-23T12:23:03.722Z,62.24
2018-05-23T12:25:32.141Z,60.33
2018-05-23T12:28:00.605Z,57.42
2018-05-23T12:30:29.018Z,61.98
2018-05-23T12:32:58.240Z,60.16
2018-05-23T12:35:26.669Z,62.76
2018-05-23T12:37:55.127Z,62.52
2018-05-23T12:40:23.573Z,63.88
2018-05-23T12:42:51.978Z,61.05
2018-05-23T12:45:20.431Z,59.04
2018-05-23T12:47:48.862Z,60.84
2018-05-23T12:50:17.313Z,66.62
2018-05-23T12:52:46.495Z,58.16
2018-05-23T12:55:14.938Z,57.30
2018-05-23T12:57:43.343Z,57.70
2018-05-23T13:00:11.842Z,57.88
2018-05-23T13:02:40.322Z,56.91
2018-05-23T13:05:08.761Z,62.26
2018-05-23T13:07:37.216Z,66.20
2018-05-23T13:10:05.691Z,58.26
2018-05-23T13:12:34.348Z,57.31
2018-05-23T13:15:02.684Z,59.03
2018-05-23T13:17:31.910Z,59.92
2018-05-23T13:20:00.354Z,54.30
2018-05-23T13:22:28.871Z,54.70
2018-05-23T13:24:57.449Z,53.98
2018-05-23T13:27:26.664Z,55.99
2018-05-23T13:29:55.103Z,57.56
2018-05-23T13:32:23.549Z,58.92
2018-05-23T13:34:52.020Z,55.93
2018-05-23T13:37:20.449Z,55.79
2018-05-23T13:39:48.927Z,57.28
2018-05-23T13:42:17.336Z,55.84
2018-05-23T13:44:45.804Z,54.29
2018-05-23T13:47:14.228Z,54.64
2018-05-23T13:49:43.436Z,55.97
2018-05-23T13:52:11.863Z,57.02
2018-05-23T13:54:40.299Z,54.95
2018-05-23T13:57:09.483Z,56.46
2018-05-23T13:59:37.920Z,57.62
2018-05-23T14:02:06.335Z,59.65
2018-05-23T14:04:34.814Z,58.30
2018-05-23T14:07:03.219Z,57.54
2018-05-23T14:09:31.684Z,62.58
2018-05-23T14:12:00.101Z,56.77
2018-05-23T14:14:29.314Z,58.67
2018-05-23T14:16:58.496Z,62.51
2018-05-23T14:19:26.941Z,58.34
2018-05-23T14:21:55.373Z,62.07
2018-05-23T14:24:24.601Z,59.99
2018-05-23T14:26:53.007Z,56.50
2018-05-23T14:29:21.468Z,54.12
2018-05-23T14:31:49.881Z,50.09
2018-05-23T14:34:18.325Z,53.27
2018-05-23T14:36:46.750Z,57.70
2018-05-23T14:39:15.172Z,55.51
2018-05-23T14:41:43.654Z,55.59
2018-05-23T14:44:12.062Z,56.58
2018-05-23T14:46:40.542Z,57.96
2018-05-23T14:49:08.976Z,57.82
2018-05-23T14:51:37.421Z,60.07
2018-05-23T14:54:05.835Z,60.86
2018-05-23T14:56:34.281Z,60.50
2018-05-23T14:59:03.481Z,61.73
2018-05-23T15:01:31.944Z,62.49
2018-05-23T15:04:01.139Z,62.53
2018-05-23T15:06:29.601Z,61.56
2018-05-23T15:08:58.009Z,61.66
2018-05-23T15:11:26.453Z,63.77
2018-05-23T15:13:54.862Z,60.72
2018-05-23T15:16:23.292Z,60.52
2018-05-23T15:18:52.457Z,58.16
2018-05-23T15:21:20.885Z,61.37
2018-05-23T15:23:49.274Z,56.48
2018-05-23T15:26:17.738Z,55.96
2018-05-23T15:28:46.909Z,58.67
2018-05-23T15:31:15.376Z,56.02
2018-05-23T15:33:43.804Z,60.44
2018-05-23T15:36:13.012Z,58.42
2018-05-23T15:38:42.177Z,57.61
2018-05-23T15:41:10.606Z,55.91
2018-05-23T15:43:39.763Z,57.62
2018-05-23T15:46:08.195Z,58.00
2018-05-23T15:48:36.591Z,57.32
2018-05-23T15:51:05.045Z,56.42
2018-05-23T15:53:33.435Z,55.89
2018-05-23T15:56:02.644Z,57.54
2018-05-23T15:58:31.811Z,55.17
2018-05-23T16:01:00.255Z,55.15
2018-05-23T16:03:28.655Z,56.95
2018-05-23T16:05:57.099Z,54.86
2018-05-23T16:08:26.345Z,57.75
2018-05-23T16:10:54.781Z,56.27
2018-05-23T16:13:23.968Z,56.41
2018-05-23T16:15:53.177Z,56.45
2018-05-23T16:18:22.363Z,57.58
2018-05-23T16:20:51.583Z,58.06
2018-05-23T16:23:20.771Z,56.83
2018-05-23T16:25:49.221Z,59.03
2018-05-23T16:28:17.641Z,57.83
2018-05-23T16:30:46.088Z,57.32
2018-05-23T16:33:14.511Z,56.82
2018-05-23T16:35:42.956Z,57.30
2018-05-23T16:38:11.368Z,57.41
2018-05-23T16:40:39.786Z,58.98
2018-05-23T16:43:08.237Z,58.43
2018-05-23T16:45:36.648Z,59.57
2018-05-23T16:48:05.861Z,59.53
2018-05-23T16:50:34.281Z,60.11
2018-05-23T16:53:02.733Z,60.54
2018-05-23T16:55:31.162Z,59.83
2018-05-23T16:57:59.626Z,60.46
2018-05-23T17:00:28.045Z,60.65
2018-05-23T17:02:56.504Z,60.47
2018-05-23T17:05:24.915Z,61.04
2018-05-23T17:07:53.388Z,61.31
2018-05-23T17:10:21.834Z,62.16
2018-05-23T17:12:50.297Z,62.01
2018-05-23T17:15:18.724Z,61.64
2018-05-23T17:17:47.169Z,62.53
2018-05-23T17:20:15.587Z,62.30
2018-05-23T17:22:44.049Z,62.84
2018-05-23T17:25:12.461Z,62.41
2018-05-23T17:27:40.912Z,62.33
2018-05-23T17:30:09.365Z,62.28
2018-05-23T17:32:37.832Z,63.24
2018-05-23T17:35:06.244Z,62.11
2018-05-23T17:37:34.714Z,62.37
2018-05-23T17:40:03.127Z,62.39
2018-05-23T17:42:31.670Z,62.53
2018-05-23T17:45:00.101Z,62.68
2018-05-23T17:47:28.570Z,61.22
2018-05-23T17:49:57.746Z,62.46
2018-05-23T17:52:26.185Z,62.65
2018-05-23T17:54:54.603Z,62.45
2018-05-23T17:57:23.144Z,62.46
2018-05-23T17:59:51.593Z,62.47
2018-05-23T18:02:20.051Z,63.09
2018-05-23T18:04:48.486Z,62.69
2018-05-23T18:07:16.952Z,62.96
2018-05-23T18:09:45.391Z,63.66
2018-05-23T18:12:13.814Z,63.27
2018-05-23T18:14:42.255Z,63.60
2018-05-23T18:17:10.688Z,62.74
2018-05-23T18:19:39.130Z,62.82
2018-05-23T18:22:07.556Z,62.49
2018-05-23T18:24:36.006Z,62.96
2018-05-23T18:27:04.458Z,62.63
2018-05-23T18:29:32.967Z,62.32
2018-05-23T18:32:02.115Z,62.94
2018-05-23T18:34:30.565Z,61.86
2018-05-23T18:36:58.981Z,62.21
2018-05-23T18:39:27.420Z,62.17
2018-05-23T18:41:55.840Z,62.69
2018-05-23T18:44:24.285Z,64.23
2018-05-23T18:46:52.721Z,67.60
2018-05-23T18:49:21.182Z,61.58
2018-05-23T18:51:49.608Z,60.49
2018-05-23T18:54:18.807Z,61.15
2018-05-23T18:56:47.237Z,60.04
2018-05-23T18:59:16.459Z,60.07
2018-05-23T19:01:44.870Z,60.66
2018-05-23T19:04:14.098Z,60.08
2018-05-23T19:06:42.523Z,59.78
2018-05-23T19:09:10.978Z,60.79
2018-05-23T19:11:39.409Z,60.31
2018-05-23T19:14:07.855Z,60.67
2018-05-23T19:16:36.308Z,60.98
2018-05-23T19:19:04.769Z,59.89
2018-05-23T19:21:33.187Z,60.62
2018-05-23T19:24:01.632Z,60.00
2018-05-23T19:26:30.056Z,61.11
2018-05-23T19:28:58.499Z,61.21
2018-05-23T19:31:27.699Z,61.37
2018-05-23T19:33:56.144Z,61.01
2018-05-23T19:36:24.547Z,61.95
2018-05-23T19:38:52.984Z,61.64
2018-05-23T19:41:22.226Z,61.78
2018-05-23T19:43:50.656Z,62.08
2018-05-23T19:46:19.065Z,62.28
2018-05-23T19:48:47.513Z,62.36
2018-05-23T19:51:15.929Z,62.94
2018-05-23T19:53:44.362Z,63.44
2018-05-23T19:56:12.805Z,62.53
2018-05-23T19:58:41.223Z,63.22
2018-05-23T20:01:09.661Z,63.83
2018-05-23T20:03:38.846Z,64.33
2018-05-23T20:06:08.065Z,65.41
2018-05-23T20:08:37.262Z,65.62
2018-05-23T20:11:06.477Z,65.91
2018-05-23T20:13:34.893Z,66.11
2018-05-23T20:16:03.342Z,67.40
2018-05-23T20:18:31.770Z,68.02
2018-05-23T20:21:00.209Z,67.81
2018-05-23T20:23:29.375Z,67.49
2018-05-23T20:25:57.808Z,67.96
2018-05-23T20:28:26.233Z,68.75
2018-05-23T20:30:54.700Z,70.10
2018-05-23T20:33:23.113Z,70.08
2018-05-23T20:35:51.549Z,70.73
2018-05-23T20:38:19.958Z,71.07
2018-05-23T20:40:48.405Z,71.04
2018-05-23T20:43:16.816Z,71.27
2018-05-23T20:45:45.264Z,71.29
2018-05-23T20:48:14.446Z,71.23
2018-05-23T20:50:42.885Z,71.21
2018-05-23T20:53:11.299Z,71.13
2018-05-23T20:55:39.741Z,70.98
2018-05-23T20:58:08.143Z,71.22
2018-05-23T21:00:37.355Z,71.67
2018-05-23T21:03:05.806Z,72.49
2018-05-23T21:05:34.320Z,73.17
2018-05-23T21:08:02.707Z,73.59
2018-05-23T21:10:31.149Z,74.53
2018-05-23T21:13:00.338Z,74.84
2018-05-23T21:15:29.574Z,75.24
2018-05-23T21:17:57.985Z,75.54
2018-05-23T21:20:26.463Z,75.80
2018-05-23T21:22:54.885Z,75.82
2018-05-23T21:25:23.337Z,75.71
2018-05-23T21:27:51.831Z,75.58
2018-05-23T21:30:20.986Z,75.44
2018-05-23T21:32:49.404Z,75.58
2018-05-23T21:35:17.859Z,76.49
2018-05-23T21:37:46.299Z,77.12
2018-05-23T21:40:14.738Z,77.01
2018-05-23T21:42:43.916Z,77.12
2018-05-23T21:45:13.129Z,77.47
2018-05-23T21:47:41.544Z,77.65
2018-05-23T21:50:09.997Z,77.87
2018-05-23T21:52:38.407Z,77.91
2018-05-23T21:55:06.815Z,77.88
2018-05-23T21:57:35.347Z,78.12
2018-05-23T22:00:03.763Z,78.18
2018-05-23T22:02:32.229Z,78.56
2018-05-23T22:05:00.643Z,78.80
2018-05-23T22:07:29.123Z,79.12
2018-05-23T22:09:57.538Z,79.30
2018-05-23T22:12:25.999Z,79.45
2018-05-23T22:14:54.438Z,79.63
2018-05-23T22:17:22.924Z,79.60
2018-05-23T22:19:51.327Z,79.53
2018-05-23T22:22:19.778Z,79.42
2018-05-23T22:24:48.978Z,79.60
2018-05-23T22:27:18.195Z,80.30
2018-05-23T22:29:46.606Z,80.18
2018-05-23T22:32:15.060Z,80.22
2018-05-23T22:34:43.472Z,80.65
2018-05-23T22:37:11.925Z,80.55
2018-05-23T22:39:41.111Z,80.37
2018-05-23T22:42:09.566Z,80.98
2018-05-23T22:44:37.982Z,81.30
2018-05-23T22:47:06.425Z,82.13
2018-05-23T22:49:34.831Z,82.35
2018-05-23T22:52:03.272Z,82.47
2018-05-23T22:54:31.678Z,82.28
2018-05-23T22:57:00.121Z,82.23
2018-05-23T22:59:29.297Z,82.35
2018-05-23T23:01:57.740Z,83.09
2018-05-23T23:04:26.159Z,83.35
2018-05-23T23:06:54.622Z,83.53
2018-05-23T23:09:23.041Z,82.74
2018-05-23T23:11:52.257Z,82.56
2018-05-23T23:14:20.681Z,82.78
2018-05-23T23:16:49.117Z,82.90
2018-05-23T23:19:18.293Z,82.78
2018-05-23T23:21:46.727Z,82.68
2018-05-23T23:24:15.152Z,82.81
2018-05-23T23:26:43.608Z,82.80
2018-05-23T23:29:12.784Z,82.78
2018-05-23T23:31:42.021Z,82.91
2018-05-23T23:34:10.429Z,82.93
2018-05-23T23:36:38.878Z,82.84
2018-05-23T23:39:07.315Z,83.31
2018-05-23T23:41:35.774Z,83.59
2018-05-23T23:44:04.195Z,83.71
2018-05-23T23:46:33.431Z,83.77
2018-05-23T23:49:01.858Z,84.47
2018-05-23T23:51:30.304Z,84.70
2018-05-23T23:53:58.712Z,84.45
2018-05-23T23:56:27.174Z,84.82
2018-05-23T23:58:55.602Z,84.89
